sensor_id;sensor_type;location;lat;lon;timestamp;temperature;humidity
19060;DHT22;9663;48.996;8.334;2022-12-18T00:04:06;-4.80;76.40
19060;DHT22;9663;48.996;8.334;2022-12-18T00:06:40;-4.90;74.60
19060;DHT22;9663;48.996;8.334;2022-12-18T00:09:05;-4.50;76.50
19060;DHT22;9663;48.996;8.334;2022-12-18T00:11:31;-4.50;76.60
19060;DHT22;9663;48.996;8.334;2022-12-18T00:13:59;-4.70;76.60
19060;DHT22;9663;48.996;8.334;2022-12-18T00:16:26;-4.90;76.40
19060;DHT22;9663;48.996;8.334;2022-12-18T00:18:55;-4.90;76.70
19060;DHT22;9663;48.996;8.334;2022-12-18T00:21:26;-4.70;76.80
19060;DHT22;9663;48.996;8.334;2022-12-18T00:23:53;-4.80;76.70
19060;DHT22;9663;48.996;8.334;2022-12-18T00:26:27;-4.70;76.90
19060;DHT22;9663;48.996;8.334;2022-12-18T00:28:57;-4.60;77.10
19060;DHT22;9663;48.996;8.334;2022-12-18T00:31:25;-4.70;76.90
19060;DHT22;9663;48.996;8.334;2022-12-18T00:33:51;-4.60;77.00
19060;DHT22;9663;48.996;8.334;2022-12-18T00:36:23;-4.60;77.10
19060;DHT22;9663;48.996;8.334;2022-12-18T00:38:53;-4.40;77.30
19060;DHT22;9663;48.996;8.334;2022-12-18T00:41:19;-4.60;77.10
19060;DHT22;9663;48.996;8.334;2022-12-18T00:44:06;-3.40;77.80
19060;DHT22;9663;48.996;8.334;2022-12-18T00:46:33;-5.10;77.40
19060;DHT22;9663;48.996;8.334;2022-12-18T00:48:59;-4.90;76.80
19060;DHT22;9663;48.996;8.334;2022-12-18T00:51:25;-4.80;76.90
19060;DHT22;9663;48.996;8.334;2022-12-18T00:53:52;-4.90;76.80
19060;DHT22;9663;48.996;8.334;2022-12-18T00:56:21;-5.00;76.90
19060;DHT22;9663;48.996;8.334;2022-12-18T00:58:48;-4.60;77.50
19060;DHT22;9663;48.996;8.334;2022-12-18T01:01:14;-4.80;77.20
19060;DHT22;9663;48.996;8.334;2022-12-18T01:03:39;-4.60;77.10
19060;DHT22;9663;48.996;8.334;2022-12-18T01:06:10;-5.00;77.00
19060;DHT22;9663;48.996;8.334;2022-12-18T01:08:37;-5.00;77.10
19060;DHT22;9663;48.996;8.334;2022-12-18T01:11:11;-4.70;77.10
19060;DHT22;9663;48.996;8.334;2022-12-18T01:13:39;-5.00;77.10
19060;DHT22;9663;48.996;8.334;2022-12-18T01:16:06;-4.80;77.10
19060;DHT22;9663;48.996;8.334;2022-12-18T01:18:32;-4.80;76.80
19060;DHT22;9663;48.996;8.334;2022-12-18T01:20:58;-4.80;76.90
19060;DHT22;9663;48.996;8.334;2022-12-18T01:23:26;-5.00;76.80
19060;DHT22;9663;48.996;8.334;2022-12-18T01:25:52;-4.60;77.30
19060;DHT22;9663;48.996;8.334;2022-12-18T01:28:18;-4.60;77.10
19060;DHT22;9663;48.996;8.334;2022-12-18T01:30:43;-4.50;77.60
19060;DHT22;9663;48.996;8.334;2022-12-18T01:33:09;-4.60;77.20
19060;DHT22;9663;48.996;8.334;2022-12-18T01:35:42;-4.80;77.10
19060;DHT22;9663;48.996;8.334;2022-12-18T01:38:08;-4.50;77.40
19060;DHT22;9663;48.996;8.334;2022-12-18T01:40:34;-5.00;76.80
19060;DHT22;9663;48.996;8.334;2022-12-18T01:43:00;-4.60;77.10
19060;DHT22;9663;48.996;8.334;2022-12-18T01:45:28;-4.70;77.10
19060;DHT22;9663;48.996;8.334;2022-12-18T01:48:05;-4.30;77.30
19060;DHT22;9663;48.996;8.334;2022-12-18T01:50:37;-4.50;77.40
19060;DHT22;9663;48.996;8.334;2022-12-18T01:53:11;-4.70;77.10
19060;DHT22;9663;48.996;8.334;2022-12-18T01:55:51;-4.50;77.30
19060;DHT22;9663;48.996;8.334;2022-12-18T01:58:21;-4.40;77.50
19060;DHT22;9663;48.996;8.334;2022-12-18T02:00:54;-2.60;78.40
19060;DHT22;9663;48.996;8.334;2022-12-18T02:03:20;-4.60;77.10
19060;DHT22;9663;48.996;8.334;2022-12-18T02:05:55;-4.70;77.00
19060;DHT22;9663;48.996;8.334;2022-12-18T02:12:00;-4.60;76.10
19060;DHT22;9663;48.996;8.334;2022-12-18T02:17:15;-4.20;77.60
19060;DHT22;9663;48.996;8.334;2022-12-18T02:22:27;-4.80;75.50
19060;DHT22;9663;48.996;8.334;2022-12-18T02:27:51;-4.70;75.60
19060;DHT22;9663;48.996;8.334;2022-12-18T02:30:20;-4.70;77.40
19060;DHT22;9663;48.996;8.334;2022-12-18T02:32:50;-4.80;77.40
19060;DHT22;9663;48.996;8.334;2022-12-18T02:35:24;-4.50;77.70
19060;DHT22;9663;48.996;8.334;2022-12-18T02:37:55;-4.80;75.70
19060;DHT22;9663;48.996;8.334;2022-12-18T02:40:24;-4.60;77.60
19060;DHT22;9663;48.996;8.334;2022-12-18T02:42:52;-4.60;77.50
19060;DHT22;9663;48.996;8.334;2022-12-18T02:45:18;-4.60;77.30
19060;DHT22;9663;48.996;8.334;2022-12-18T02:47:46;-4.30;77.50
19060;DHT22;9663;48.996;8.334;2022-12-18T02:53:13;-4.80;77.70
19060;DHT22;9663;48.996;8.334;2022-12-18T02:59:13;-4.40;76.30
19060;DHT22;9663;48.996;8.334;2022-12-18T03:05:33;-4.90;76.40
19060;DHT22;9663;48.996;8.334;2022-12-18T03:08:07;-4.40;78.30
19060;DHT22;9663;48.996;8.334;2022-12-18T03:10:44;-4.50;77.70
19060;DHT22;9663;48.996;8.334;2022-12-18T03:13:28;-4.50;77.60
19060;DHT22;9663;48.996;8.334;2022-12-18T03:15:56;-4.50;76.10
19060;DHT22;9663;48.996;8.334;2022-12-18T03:18:42;-4.40;77.70
19060;DHT22;9663;48.996;8.334;2022-12-18T03:21:32;-4.70;76.10
19060;DHT22;9663;48.996;8.334;2022-12-18T03:24:01;-4.20;76.10
19060;DHT22;9663;48.996;8.334;2022-12-18T03:26:33;-4.40;77.40
19060;DHT22;9663;48.996;8.334;2022-12-18T03:29:09;-4.40;77.30
19060;DHT22;9663;48.996;8.334;2022-12-18T03:31:48;-4.40;77.40
19060;DHT22;9663;48.996;8.334;2022-12-18T03:34:30;-4.50;77.20
19060;DHT22;9663;48.996;8.334;2022-12-18T03:36:59;-4.80;77.10
19060;DHT22;9663;48.996;8.334;2022-12-18T03:39:25;-4.90;76.90
19060;DHT22;9663;48.996;8.334;2022-12-18T03:42:07;-4.70;77.00
19060;DHT22;9663;48.996;8.334;2022-12-18T03:48:31;-4.70;75.90
19060;DHT22;9663;48.996;8.334;2022-12-18T03:51:07;-4.70;75.90
19060;DHT22;9663;48.996;8.334;2022-12-18T03:53:59;-4.90;77.20
19060;DHT22;9663;48.996;8.334;2022-12-18T03:56:31;-4.90;76.00
19060;DHT22;9663;48.996;8.334;2022-12-18T03:59:01;-5.10;77.20
19060;DHT22;9663;48.996;8.334;2022-12-18T04:01:32;-5.20;77.10
19060;DHT22;9663;48.996;8.334;2022-12-18T04:04:02;-5.40;77.10
19060;DHT22;9663;48.996;8.334;2022-12-18T04:06:30;-5.30;76.90
19060;DHT22;9663;48.996;8.334;2022-12-18T04:08:57;-5.40;77.00
19060;DHT22;9663;48.996;8.334;2022-12-18T04:11:24;-5.10;77.20
19060;DHT22;9663;48.996;8.334;2022-12-18T04:13:50;-4.80;77.40
19060;DHT22;9663;48.996;8.334;2022-12-18T04:16:15;-5.10;77.40
19060;DHT22;9663;48.996;8.334;2022-12-18T04:18:41;-5.20;77.30
19060;DHT22;9663;48.996;8.334;2022-12-18T04:21:07;-5.10;77.40
19060;DHT22;9663;48.996;8.334;2022-12-18T04:23:32;-5.00;77.50
19060;DHT22;9663;48.996;8.334;2022-12-18T04:25:58;-4.90;77.70
19060;DHT22;9663;48.996;8.334;2022-12-18T04:28:24;-5.00;77.50
19060;DHT22;9663;48.996;8.334;2022-12-18T04:30:49;-5.10;77.40
19060;DHT22;9663;48.996;8.334;2022-12-18T04:33:15;-5.10;77.60
19060;DHT22;9663;48.996;8.334;2022-12-18T04:35:42;-4.90;76.60
19060;DHT22;9663;48.996;8.334;2022-12-18T04:38:08;-5.10;77.60
19060;DHT22;9663;48.996;8.334;2022-12-18T04:40:36;-5.00;77.60
19060;DHT22;9663;48.996;8.334;2022-12-18T04:43:02;-4.60;78.10
19060;DHT22;9663;48.996;8.334;2022-12-18T04:45:32;-4.80;77.70
19060;DHT22;9663;48.996;8.334;2022-12-18T04:47:59;-4.90;77.90
19060;DHT22;9663;48.996;8.334;2022-12-18T04:50:26;-4.70;77.90
19060;DHT22;9663;48.996;8.334;2022-12-18T04:52:52;-4.90;77.60
19060;DHT22;9663;48.996;8.334;2022-12-18T04:55:18;-5.00;77.60
19060;DHT22;9663;48.996;8.334;2022-12-18T04:57:43;-4.80;77.80
19060;DHT22;9663;48.996;8.334;2022-12-18T05:00:10;-4.80;77.80
19060;DHT22;9663;48.996;8.334;2022-12-18T05:02:36;-4.80;77.50
19060;DHT22;9663;48.996;8.334;2022-12-18T05:05:02;-5.00;77.60
19060;DHT22;9663;48.996;8.334;2022-12-18T05:07:28;-5.00;77.80
19060;DHT22;9663;48.996;8.334;2022-12-18T05:09:53;-3.80;78.40
19060;DHT22;9663;48.996;8.334;2022-12-18T05:12:19;-4.80;77.80
19060;DHT22;9663;48.996;8.334;2022-12-18T05:14:45;-5.10;77.50
19060;DHT22;9663;48.996;8.334;2022-12-18T05:17:10;-4.70;77.90
19060;DHT22;9663;48.996;8.334;2022-12-18T05:19:37;-4.80;77.80
19060;DHT22;9663;48.996;8.334;2022-12-18T05:22:03;-4.90;77.80
19060;DHT22;9663;48.996;8.334;2022-12-18T05:24:29;-5.00;77.50
19060;DHT22;9663;48.996;8.334;2022-12-18T05:26:54;-5.00;77.60
19060;DHT22;9663;48.996;8.334;2022-12-18T05:29:20;-4.60;77.80
19060;DHT22;9663;48.996;8.334;2022-12-18T05:31:45;-4.00;78.00
19060;DHT22;9663;48.996;8.334;2022-12-18T05:34:11;-4.50;77.80
19060;DHT22;9663;48.996;8.334;2022-12-18T05:36:37;-4.70;77.60
19060;DHT22;9663;48.996;8.334;2022-12-18T05:39:03;-4.60;77.80
19060;DHT22;9663;48.996;8.334;2022-12-18T05:41:28;-4.40;77.90
19060;DHT22;9663;48.996;8.334;2022-12-18T05:43:54;-4.10;78.00
19060;DHT22;9663;48.996;8.334;2022-12-18T05:46:20;-4.20;78.10
19060;DHT22;9663;48.996;8.334;2022-12-18T05:48:45;-4.30;77.90
19060;DHT22;9663;48.996;8.334;2022-12-18T05:51:13;-4.20;77.70
19060;DHT22;9663;48.996;8.334;2022-12-18T05:53:41;-4.30;77.90
19060;DHT22;9663;48.996;8.334;2022-12-18T05:56:10;-4.10;77.70
19060;DHT22;9663;48.996;8.334;2022-12-18T05:58:42;-3.20;78.30
19060;DHT22;9663;48.996;8.334;2022-12-18T06:01:16;-3.80;77.90
19060;DHT22;9663;48.996;8.334;2022-12-18T06:03:44;-3.80;76.10
19060;DHT22;9663;48.996;8.334;2022-12-18T06:06:15;-2.90;78.10
19060;DHT22;9663;48.996;8.334;2022-12-18T06:08:42;-3.90;77.60
19060;DHT22;9663;48.996;8.334;2022-12-18T06:11:08;-3.70;77.30
19060;DHT22;9663;48.996;8.334;2022-12-18T06:13:34;-3.60;77.60
19060;DHT22;9663;48.996;8.334;2022-12-18T06:16:03;-3.70;77.30
19060;DHT22;9663;48.996;8.334;2022-12-18T06:18:29;-3.70;77.40
19060;DHT22;9663;48.996;8.334;2022-12-18T06:20:56;-3.80;77.30
19060;DHT22;9663;48.996;8.334;2022-12-18T06:23:22;-3.80;77.20
19060;DHT22;9663;48.996;8.334;2022-12-18T06:25:48;-3.50;77.40
19060;DHT22;9663;48.996;8.334;2022-12-18T06:28:14;-3.50;77.60
19060;DHT22;9663;48.996;8.334;2022-12-18T06:30:39;-3.40;77.20
19060;DHT22;9663;48.996;8.334;2022-12-18T06:33:05;-3.60;77.10
19060;DHT22;9663;48.996;8.334;2022-12-18T06:35:32;-3.50;77.20
19060;DHT22;9663;48.996;8.334;2022-12-18T06:37:57;-3.40;77.30
19060;DHT22;9663;48.996;8.334;2022-12-18T06:40:23;-3.20;77.50
19060;DHT22;9663;48.996;8.334;2022-12-18T06:42:49;-3.40;77.50
19060;DHT22;9663;48.996;8.334;2022-12-18T06:45:14;-3.60;77.30
19060;DHT22;9663;48.996;8.334;2022-12-18T06:47:40;-3.40;77.60
19060;DHT22;9663;48.996;8.334;2022-12-18T06:50:08;-3.30;77.30
19060;DHT22;9663;48.996;8.334;2022-12-18T06:52:34;-3.30;77.50
19060;DHT22;9663;48.996;8.334;2022-12-18T06:55:00;-3.20;77.60
19060;DHT22;9663;48.996;8.334;2022-12-18T06:57:26;-3.50;77.40
19060;DHT22;9663;48.996;8.334;2022-12-18T06:59:51;-3.40;77.40
19060;DHT22;9663;48.996;8.334;2022-12-18T07:02:17;-3.20;77.50
19060;DHT22;9663;48.996;8.334;2022-12-18T07:04:42;-3.10;77.50
19060;DHT22;9663;48.996;8.334;2022-12-18T07:07:08;-3.10;77.60
19060;DHT22;9663;48.996;8.334;2022-12-18T07:09:34;-2.90;78.00
19060;DHT22;9663;48.996;8.334;2022-12-18T07:12:00;-5.50;76.00
19060;DHT22;9663;48.996;8.334;2022-12-18T07:14:25;-2.90;77.70
19060;DHT22;9663;48.996;8.334;2022-12-18T07:16:51;-3.10;77.60
19060;DHT22;9663;48.996;8.334;2022-12-18T07:19:16;-3.30;77.20
19060;DHT22;9663;48.996;8.334;2022-12-18T07:21:42;-2.90;77.40
19060;DHT22;9663;48.996;8.334;2022-12-18T07:24:08;-2.80;77.40
19060;DHT22;9663;48.996;8.334;2022-12-18T07:26:33;-2.70;77.30
19060;DHT22;9663;48.996;8.334;2022-12-18T07:28:59;-3.00;77.20
19060;DHT22;9663;48.996;8.334;2022-12-18T07:31:25;-2.50;77.40
19060;DHT22;9663;48.996;8.334;2022-12-18T07:33:52;-2.60;78.10
19060;DHT22;9663;48.996;8.334;2022-12-18T07:36:18;-2.80;77.10
19060;DHT22;9663;48.996;8.334;2022-12-18T07:38:47;-2.70;77.10
19060;DHT22;9663;48.996;8.334;2022-12-18T07:41:14;-2.70;77.20
19060;DHT22;9663;48.996;8.334;2022-12-18T07:43:40;-1.70;77.70
19060;DHT22;9663;48.996;8.334;2022-12-18T07:46:08;-2.40;77.10
19060;DHT22;9663;48.996;8.334;2022-12-18T07:48:34;-2.40;77.30
19060;DHT22;9663;48.996;8.334;2022-12-18T07:51:02;-2.70;77.10
19060;DHT22;9663;48.996;8.334;2022-12-18T07:53:30;-2.40;77.40
19060;DHT22;9663;48.996;8.334;2022-12-18T07:56:01;-2.70;77.00
19060;DHT22;9663;48.996;8.334;2022-12-18T07:58:31;-2.70;77.30
19060;DHT22;9663;48.996;8.334;2022-12-18T08:01:10;-2.90;77.10
19060;DHT22;9663;48.996;8.334;2022-12-18T08:03:37;-2.60;75.90
19060;DHT22;9663;48.996;8.334;2022-12-18T08:06:06;-2.50;77.20
19060;DHT22;9663;48.996;8.334;2022-12-18T08:08:34;-2.90;76.70
19060;DHT22;9663;48.996;8.334;2022-12-18T08:11:00;-1.90;77.50
19060;DHT22;9663;48.996;8.334;2022-12-18T08:13:27;-2.80;77.10
19060;DHT22;9663;48.996;8.334;2022-12-18T08:16:06;-2.60;77.20
19060;DHT22;9663;48.996;8.334;2022-12-18T08:18:33;-2.40;76.00
19060;DHT22;9663;48.996;8.334;2022-12-18T08:21:14;-2.60;77.50
19060;DHT22;9663;48.996;8.334;2022-12-18T08:23:43;-2.40;77.70
19060;DHT22;9663;48.996;8.334;2022-12-18T08:26:13;-2.40;77.20
19060;DHT22;9663;48.996;8.334;2022-12-18T08:28:39;-2.50;77.00
19060;DHT22;9663;48.996;8.334;2022-12-18T08:31:06;-2.70;76.80
19060;DHT22;9663;48.996;8.334;2022-12-18T08:33:33;-2.10;77.10
19060;DHT22;9663;48.996;8.334;2022-12-18T08:36:00;-2.50;76.80
19060;DHT22;9663;48.996;8.334;2022-12-18T08:38:26;-2.00;77.00
19060;DHT22;9663;48.996;8.334;2022-12-18T08:41:04;-2.40;76.80
19060;DHT22;9663;48.996;8.334;2022-12-18T08:43:32;-1.90;77.50
19060;DHT22;9663;48.996;8.334;2022-12-18T08:46:18;-2.00;77.30
19060;DHT22;9663;48.996;8.334;2022-12-18T08:48:45;-2.20;77.30
19060;DHT22;9663;48.996;8.334;2022-12-18T08:51:11;-2.00;77.20
19060;DHT22;9663;48.996;8.334;2022-12-18T08:53:37;-2.10;77.00
19060;DHT22;9663;48.996;8.334;2022-12-18T08:56:04;-2.00;76.90
19060;DHT22;9663;48.996;8.334;2022-12-18T08:58:30;-2.00;76.60
19060;DHT22;9663;48.996;8.334;2022-12-18T09:01:04;-1.90;76.80
19060;DHT22;9663;48.996;8.334;2022-12-18T09:03:31;-1.90;77.00
19060;DHT22;9663;48.996;8.334;2022-12-18T09:05:58;-1.90;76.90
19060;DHT22;9663;48.996;8.334;2022-12-18T09:08:25;-1.80;76.60
19060;DHT22;9663;48.996;8.334;2022-12-18T09:10:51;-1.80;76.70
19060;DHT22;9663;48.996;8.334;2022-12-18T09:13:17;-1.70;76.60
19060;DHT22;9663;48.996;8.334;2022-12-18T09:15:46;-1.60;76.60
19060;DHT22;9663;48.996;8.334;2022-12-18T09:18:13;-1.50;76.60
19060;DHT22;9663;48.996;8.334;2022-12-18T09:20:41;-1.50;76.40
19060;DHT22;9663;48.996;8.334;2022-12-18T09:23:07;-1.30;76.40
19060;DHT22;9663;48.996;8.334;2022-12-18T09:25:33;-1.40;76.40
19060;DHT22;9663;48.996;8.334;2022-12-18T09:28:02;-1.50;76.40
19060;DHT22;9663;48.996;8.334;2022-12-18T09:30:30;-1.50;76.20
19060;DHT22;9663;48.996;8.334;2022-12-18T09:32:55;-1.40;76.40
19060;DHT22;9663;48.996;8.334;2022-12-18T09:35:21;-1.10;76.40
19060;DHT22;9663;48.996;8.334;2022-12-18T09:37:47;-1.40;76.10
19060;DHT22;9663;48.996;8.334;2022-12-18T09:40:15;-1.10;75.90
19060;DHT22;9663;48.996;8.334;2022-12-18T09:42:45;-1.10;75.90
19060;DHT22;9663;48.996;8.334;2022-12-18T09:45:18;-1.20;75.80
19060;DHT22;9663;48.996;8.334;2022-12-18T09:47:45;-1.20;75.60
19060;DHT22;9663;48.996;8.334;2022-12-18T09:50:32;-0.90;75.90
19060;DHT22;9663;48.996;8.334;2022-12-18T09:53:10;-1.00;74.20
19060;DHT22;9663;48.996;8.334;2022-12-18T09:55:43;-1.10;74.20
19060;DHT22;9663;48.996;8.334;2022-12-18T09:58:20;-1.00;75.70
19060;DHT22;9663;48.996;8.334;2022-12-18T10:00:54;-1.10;75.80
19060;DHT22;9663;48.996;8.334;2022-12-18T10:03:21;-0.80;76.10
19060;DHT22;9663;48.996;8.334;2022-12-18T10:08:51;-1.10;74.20
19060;DHT22;9663;48.996;8.334;2022-12-18T10:14:57;-0.70;74.50
19060;DHT22;9663;48.996;8.334;2022-12-18T10:20:38;-1.10;74.80
19060;DHT22;9663;48.996;8.334;2022-12-18T10:26:07;-1.10;74.20
19060;DHT22;9663;48.996;8.334;2022-12-18T10:28:37;-1.10;76.00
19060;DHT22;9663;48.996;8.334;2022-12-18T10:31:06;-1.00;76.10
19060;DHT22;9663;48.996;8.334;2022-12-18T10:33:33;-1.00;76.00
19060;DHT22;9663;48.996;8.334;2022-12-18T10:36:00;-0.60;76.40
19060;DHT22;9663;48.996;8.334;2022-12-18T10:38:31;-0.90;76.10
19060;DHT22;9663;48.996;8.334;2022-12-18T10:43:35;-0.30;76.20
19060;DHT22;9663;48.996;8.334;2022-12-18T10:51:23;-0.20;75.50
19060;DHT22;9663;48.996;8.334;2022-12-18T10:56:22;-0.10;74.80
19060;DHT22;9663;48.996;8.334;2022-12-18T10:58:58;-0.20;74.70
19060;DHT22;9663;48.996;8.334;2022-12-18T11:01:27;-0.40;74.90
19060;DHT22;9663;48.996;8.334;2022-12-18T11:06:23;-0.10;74.90
19060;DHT22;9663;48.996;8.334;2022-12-18T11:09:03;-0.20;74.80
19060;DHT22;9663;48.996;8.334;2022-12-18T11:11:31;-0.20;74.90
19060;DHT22;9663;48.996;8.334;2022-12-18T11:14:24;-0.10;74.70
19060;DHT22;9663;48.996;8.334;2022-12-18T11:17:00;-0.70;72.80
19060;DHT22;9663;48.996;8.334;2022-12-18T11:19:36;-0.10;74.60
19060;DHT22;9663;48.996;8.334;2022-12-18T11:22:32;-0.20;74.60
19060;DHT22;9663;48.996;8.334;2022-12-18T11:27:29;0.00;74.80
19060;DHT22;9663;48.996;8.334;2022-12-18T11:32:52;0.00;75.40
19060;DHT22;9663;48.996;8.334;2022-12-18T11:35:50;0.00;73.50
19060;DHT22;9663;48.996;8.334;2022-12-18T11:38:28;-0.10;73.80
19060;DHT22;9663;48.996;8.334;2022-12-18T11:44:15;-0.20;73.90
19060;DHT22;9663;48.996;8.334;2022-12-18T11:46:51;0.00;75.60
19060;DHT22;9663;48.996;8.334;2022-12-18T11:49:27;0.10;75.10
19060;DHT22;9663;48.996;8.334;2022-12-18T11:54:42;0.50;73.40
19060;DHT22;9663;48.996;8.334;2022-12-18T11:57:20;0.40;74.80
19060;DHT22;9663;48.996;8.334;2022-12-18T12:00:18;0.40;73.20
19060;DHT22;9663;48.996;8.334;2022-12-18T12:15:34;0.80;73.30
19060;DHT22;9663;48.996;8.334;2022-12-18T12:24:35;1.00;72.70
19060;DHT22;9663;48.996;8.334;2022-12-18T12:34:16;0.90;71.90
19060;DHT22;9663;48.996;8.334;2022-12-18T12:37:07;0.90;72.00
19060;DHT22;9663;48.996;8.334;2022-12-18T12:39:39;1.40;74.20
19060;DHT22;9663;48.996;8.334;2022-12-18T12:42:33;1.00;73.60
19060;DHT22;9663;48.996;8.334;2022-12-18T12:45:45;1.30;72.50
19060;DHT22;9663;48.996;8.334;2022-12-18T12:48:53;1.10;74.00
19060;DHT22;9663;48.996;8.334;2022-12-18T12:51:32;1.30;72.20
19060;DHT22;9663;48.996;8.334;2022-12-18T12:54:03;1.70;72.10
19060;DHT22;9663;48.996;8.334;2022-12-18T12:56:57;0.50;72.50
19060;DHT22;9663;48.996;8.334;2022-12-18T13:02:28;1.80;73.10
19060;DHT22;9663;48.996;8.334;2022-12-18T13:08:09;1.90;71.50
19060;DHT22;9663;48.996;8.334;2022-12-18T13:10:40;2.10;71.80
19060;DHT22;9663;48.996;8.334;2022-12-18T13:15:39;2.10;72.70
19060;DHT22;9663;48.996;8.334;2022-12-18T13:20:49;2.10;72.30
19060;DHT22;9663;48.996;8.334;2022-12-18T13:23:33;2.00;73.00
19060;DHT22;9663;48.996;8.334;2022-12-18T13:34:21;2.10;70.70
19060;DHT22;9663;48.996;8.334;2022-12-18T13:36:50;1.90;71.10
19060;DHT22;9663;48.996;8.334;2022-12-18T13:39:30;2.60;72.70
19060;DHT22;9663;48.996;8.334;2022-12-18T13:44:35;2.60;72.80
19060;DHT22;9663;48.996;8.334;2022-12-18T13:47:04;2.30;72.10
19060;DHT22;9663;48.996;8.334;2022-12-18T13:49:40;2.30;72.10
19060;DHT22;9663;48.996;8.334;2022-12-18T13:52:26;2.40;70.80
19060;DHT22;9663;48.996;8.334;2022-12-18T13:54:59;2.20;72.50
19060;DHT22;9663;48.996;8.334;2022-12-18T13:57:29;2.20;70.90
19060;DHT22;9663;48.996;8.334;2022-12-18T13:59:56;2.00;72.40
19060;DHT22;9663;48.996;8.334;2022-12-18T14:02:27;2.00;72.40
19060;DHT22;9663;48.996;8.334;2022-12-18T14:04:54;1.90;71.90
19060;DHT22;9663;48.996;8.334;2022-12-18T14:07:25;2.20;72.00
19060;DHT22;9663;48.996;8.334;2022-12-18T14:09:54;2.00;72.50
19060;DHT22;9663;48.996;8.334;2022-12-18T14:12:33;1.90;72.90
19060;DHT22;9663;48.996;8.334;2022-12-18T14:20:51;1.90;72.70
19060;DHT22;9663;48.996;8.334;2022-12-18T14:23:44;1.40;73.90
19060;DHT22;9663;48.996;8.334;2022-12-18T14:26:28;1.40;73.90
19060;DHT22;9663;48.996;8.334;2022-12-18T14:28:57;1.00;73.90
19060;DHT22;9663;48.996;8.334;2022-12-18T14:31:30;1.30;73.80
19060;DHT22;9663;48.996;8.334;2022-12-18T14:33:57;1.20;71.90
19060;DHT22;9663;48.996;8.334;2022-12-18T14:36:28;0.80;74.20
19060;DHT22;9663;48.996;8.334;2022-12-18T14:38:56;1.10;74.60
19060;DHT22;9663;48.996;8.334;2022-12-18T14:41:24;0.70;73.50
19060;DHT22;9663;48.996;8.334;2022-12-18T14:43:52;0.90;73.70
19060;DHT22;9663;48.996;8.334;2022-12-18T14:49:19;0.50;72.00
19060;DHT22;9663;48.996;8.334;2022-12-18T14:52:24;0.40;73.70
19060;DHT22;9663;48.996;8.334;2022-12-18T14:54:53;0.50;73.70
19060;DHT22;9663;48.996;8.334;2022-12-18T14:57:24;0.50;73.40
19060;DHT22;9663;48.996;8.334;2022-12-18T15:00:07;0.40;73.70
19060;DHT22;9663;48.996;8.334;2022-12-18T15:02:42;0.50;71.80
19060;DHT22;9663;48.996;8.334;2022-12-18T15:05:30;0.40;73.60
19060;DHT22;9663;48.996;8.334;2022-12-18T15:07:59;0.30;72.30
19060;DHT22;9663;48.996;8.334;2022-12-18T15:10:29;0.40;73.70
19060;DHT22;9663;48.996;8.334;2022-12-18T15:15:46;0.50;73.70
19060;DHT22;9663;48.996;8.334;2022-12-18T15:18:15;0.10;74.00
19060;DHT22;9663;48.996;8.334;2022-12-18T15:21:07;-0.10;73.70
19060;DHT22;9663;48.996;8.334;2022-12-18T15:23:52;-0.30;72.00
19060;DHT22;9663;48.996;8.334;2022-12-18T15:26:20;0.00;72.40
19060;DHT22;9663;48.996;8.334;2022-12-18T15:28:49;-0.20;73.80
19060;DHT22;9663;48.996;8.334;2022-12-18T15:31:23;-0.40;73.60
19060;DHT22;9663;48.996;8.334;2022-12-18T15:34:18;-0.30;74.10
19060;DHT22;9663;48.996;8.334;2022-12-18T15:36:46;-0.40;74.80
19060;DHT22;9663;48.996;8.334;2022-12-18T15:39:12;-0.20;74.60
19060;DHT22;9663;48.996;8.334;2022-12-18T15:41:38;-0.20;74.20
19060;DHT22;9663;48.996;8.334;2022-12-18T15:44:23;-0.70;73.90
19060;DHT22;9663;48.996;8.334;2022-12-18T15:46:49;-0.60;74.70
19060;DHT22;9663;48.996;8.334;2022-12-18T15:49:15;-0.80;74.00
19060;DHT22;9663;48.996;8.334;2022-12-18T15:51:41;-0.60;74.20
19060;DHT22;9663;48.996;8.334;2022-12-18T15:54:11;-0.50;74.40
19060;DHT22;9663;48.996;8.334;2022-12-18T15:56:40;-0.60;74.50
19060;DHT22;9663;48.996;8.334;2022-12-18T15:59:25;-0.40;73.60
19060;DHT22;9663;48.996;8.334;2022-12-18T16:01:52;-0.50;75.40
19060;DHT22;9663;48.996;8.334;2022-12-18T16:04:22;-0.80;74.40
19060;DHT22;9663;48.996;8.334;2022-12-18T16:06:50;-0.70;74.50
19060;DHT22;9663;48.996;8.334;2022-12-18T16:09:16;-0.70;74.30
19060;DHT22;9663;48.996;8.334;2022-12-18T16:11:43;-0.50;74.50
19060;DHT22;9663;48.996;8.334;2022-12-18T16:14:22;-0.60;74.50
19060;DHT22;9663;48.996;8.334;2022-12-18T16:16:55;-0.70;73.10
19060;DHT22;9663;48.996;8.334;2022-12-18T16:19:22;-0.90;74.50
19060;DHT22;9663;48.996;8.334;2022-12-18T16:21:51;-0.80;74.60
19060;DHT22;9663;48.996;8.334;2022-12-18T16:24:19;-0.80;74.50
19060;DHT22;9663;48.996;8.334;2022-12-18T16:26:50;-0.80;74.40
19060;DHT22;9663;48.996;8.334;2022-12-18T16:29:18;-0.60;74.80
19060;DHT22;9663;48.996;8.334;2022-12-18T16:31:45;-0.60;74.60
19060;DHT22;9663;48.996;8.334;2022-12-18T16:34:23;-0.80;74.60
19060;DHT22;9663;48.996;8.334;2022-12-18T16:36:59;-0.60;75.20
19060;DHT22;9663;48.996;8.334;2022-12-18T16:39:26;-0.80;74.90
19060;DHT22;9663;48.996;8.334;2022-12-18T16:41:52;-0.90;74.60
19060;DHT22;9663;48.996;8.334;2022-12-18T16:44:18;-0.50;74.80
19060;DHT22;9663;48.996;8.334;2022-12-18T16:46:45;-0.90;74.50
19060;DHT22;9663;48.996;8.334;2022-12-18T16:49:15;-0.90;74.70
19060;DHT22;9663;48.996;8.334;2022-12-18T16:51:42;-0.80;72.90
19060;DHT22;9663;48.996;8.334;2022-12-18T16:54:09;-0.60;74.60
19060;DHT22;9663;48.996;8.334;2022-12-18T16:56:35;-0.80;74.50
19060;DHT22;9663;48.996;8.334;2022-12-18T16:59:03;-0.70;74.60
19060;DHT22;9663;48.996;8.334;2022-12-18T17:01:30;-0.90;74.60
19060;DHT22;9663;48.996;8.334;2022-12-18T17:04:02;-0.70;74.90
19060;DHT22;9663;48.996;8.334;2022-12-18T17:06:32;-0.90;74.90
19060;DHT22;9663;48.996;8.334;2022-12-18T17:09:02;-0.90;74.80
19060;DHT22;9663;48.996;8.334;2022-12-18T17:11:32;-1.10;74.60
19060;DHT22;9663;48.996;8.334;2022-12-18T17:13:59;-0.90;74.80
19060;DHT22;9663;48.996;8.334;2022-12-18T17:16:29;-0.90;75.40
19060;DHT22;9663;48.996;8.334;2022-12-18T17:18:55;-1.10;74.50
19060;DHT22;9663;48.996;8.334;2022-12-18T17:21:21;-1.10;74.50
19060;DHT22;9663;48.996;8.334;2022-12-18T17:23:46;-1.10;74.60
19060;DHT22;9663;48.996;8.334;2022-12-18T17:26:12;-0.80;75.20
19060;DHT22;9663;48.996;8.334;2022-12-18T17:28:40;-1.00;75.00
19060;DHT22;9663;48.996;8.334;2022-12-18T17:31:14;-1.00;75.10
19060;DHT22;9663;48.996;8.334;2022-12-18T17:33:42;-1.20;75.10
19060;DHT22;9663;48.996;8.334;2022-12-18T17:36:09;-1.20;75.10
19060;DHT22;9663;48.996;8.334;2022-12-18T17:38:35;-1.20;75.10
19060;DHT22;9663;48.996;8.334;2022-12-18T17:41:02;-0.80;75.20
19060;DHT22;9663;48.996;8.334;2022-12-18T17:43:30;-1.00;75.20
19060;DHT22;9663;48.996;8.334;2022-12-18T17:45:56;-1.00;75.20
19060;DHT22;9663;48.996;8.334;2022-12-18T17:48:26;-0.70;75.60
19060;DHT22;9663;48.996;8.334;2022-12-18T17:50:52;-1.00;75.30
19060;DHT22;9663;48.996;8.334;2022-12-18T17:53:18;-0.90;75.50
19060;DHT22;9663;48.996;8.334;2022-12-18T17:55:43;-1.00;75.40
19060;DHT22;9663;48.996;8.334;2022-12-18T17:58:18;-1.00;75.30
19060;DHT22;9663;48.996;8.334;2022-12-18T18:00:43;-1.10;75.30
19060;DHT22;9663;48.996;8.334;2022-12-18T18:03:10;-1.00;75.30
19060;DHT22;9663;48.996;8.334;2022-12-18T18:05:35;-1.20;75.10
19060;DHT22;9663;48.996;8.334;2022-12-18T18:08:01;-1.10;74.90
19060;DHT22;9663;48.996;8.334;2022-12-18T18:10:26;-1.20;74.90
19060;DHT22;9663;48.996;8.334;2022-12-18T18:12:52;-0.80;75.20